sensor_id;sensor_type;location;lat;lon;timestamp;temperature;humidity
77592;DHT22;66891;46.884;17.436;2023-04-15T00:02:14;7.12;93.07
77592;DHT22;66891;46.884;17.436;2023-04-15T00:04:42;6.92;92.53
77592;DHT22;66891;46.884;17.436;2023-04-15T00:07:10;6.83;93.88
77592;DHT22;66891;46.884;17.436;2023-04-15T00:09:37;7.05;92.70
77592;DHT22;66891;46.884;17.436;2023-04-15T00:12:05;7.04;91.90
77592;DHT22;66891;46.884;17.436;2023-04-15T00:14:33;7.11;92.14
77592;DHT22;66891;46.884;17.436;2023-04-15T00:17:03;7.07;92.80
77592;DHT22;66891;46.884;17.436;2023-04-15T00:19:31;6.95;93.51
77592;DHT22;66891;46.884;17.436;2023-04-15T00:21:58;7.05;92.60
77592;DHT22;66891;46.884;17.436;2023-04-15T00:24:26;7.11;92.45
77592;DHT22;66891;46.884;17.436;2023-04-15T00:26:54;7.16;92.12
77592;DHT22;66891;46.884;17.436;2023-04-15T00:29:21;7.14;91.98
77592;DHT22;66891;46.884;17.436;2023-04-15T00:31:49;7.04;92.72
77592;DHT22;66891;46.884;17.436;2023-04-15T00:34:18;7.26;91.62
77592;DHT22;66891;46.884;17.436;2023-04-15T00:36:46;7.33;90.67
77592;DHT22;66891;46.884;17.436;2023-04-15T00:39:13;7.30;90.60
77592;DHT22;66891;46.884;17.436;2023-04-15T00:41:42;7.45;90.33
77592;DHT22;66891;46.884;17.436;2023-04-15T00:44:09;7.45;90.87
77592;DHT22;66891;46.884;17.436;2023-04-15T00:46:38;7.32;91.50
77592;DHT22;66891;46.884;17.436;2023-04-15T00:49:06;7.25;91.60
77592;DHT22;66891;46.884;17.436;2023-04-15T00:51:35;7.25;91.12
77592;DHT22;66891;46.884;17.436;2023-04-15T00:54:03;7.26;92.26
77592;DHT22;66891;46.884;17.436;2023-04-15T00:56:34;7.25;91.67
77592;DHT22;66891;46.884;17.436;2023-04-15T00:59:02;7.23;92.21
77592;DHT22;66891;46.884;17.436;2023-04-15T01:01:30;7.25;93.22
77592;DHT22;66891;46.884;17.436;2023-04-15T01:03:59;7.28;92.52
77592;DHT22;66891;46.884;17.436;2023-04-15T01:06:26;7.38;91.44
77592;DHT22;66891;46.884;17.436;2023-04-15T01:08:56;7.42;92.68
77592;DHT22;66891;46.884;17.436;2023-04-15T01:11:24;7.43;91.93
77592;DHT22;66891;46.884;17.436;2023-04-15T01:13:54;7.45;90.66
77592;DHT22;66891;46.884;17.436;2023-04-15T01:16:21;7.42;91.01
77592;DHT22;66891;46.884;17.436;2023-04-15T01:18:49;7.47;90.86
77592;DHT22;66891;46.884;17.436;2023-04-15T01:21:17;7.43;91.01
77592;DHT22;66891;46.884;17.436;2023-04-15T01:23:46;7.40;91.21
77592;DHT22;66891;46.884;17.436;2023-04-15T01:26:15;7.39;90.56
77592;DHT22;66891;46.884;17.436;2023-04-15T01:28:43;7.56;91.20
77592;DHT22;66891;46.884;17.436;2023-04-15T01:31:12;7.39;91.99
77592;DHT22;66891;46.884;17.436;2023-04-15T01:33:41;7.39;91.83
77592;DHT22;66891;46.884;17.436;2023-04-15T01:36:09;7.56;90.80
77592;DHT22;66891;46.884;17.436;2023-04-15T01:38:37;7.70;89.75
77592;DHT22;66891;46.884;17.436;2023-04-15T01:41:05;7.56;90.74
77592;DHT22;66891;46.884;17.436;2023-04-15T01:43:35;7.55;91.22
77592;DHT22;66891;46.884;17.436;2023-04-15T01:46:05;7.69;89.83
77592;DHT22;66891;46.884;17.436;2023-04-15T01:48:33;7.70;90.04
77592;DHT22;66891;46.884;17.436;2023-04-15T01:51:00;7.60;89.99
77592;DHT22;66891;46.884;17.436;2023-04-15T01:53:28;7.69;89.80
77592;DHT22;66891;46.884;17.436;2023-04-15T01:55:56;7.70;89.80
77592;DHT22;66891;46.884;17.436;2023-04-15T01:58:23;7.66;90.28
77592;DHT22;66891;46.884;17.436;2023-04-15T02:00:52;7.52;92.19
77592;DHT22;66891;46.884;17.436;2023-04-15T02:03:20;7.43;91.85
77592;DHT22;66891;46.884;17.436;2023-04-15T02:05:48;7.66;90.70
77592;DHT22;66891;46.884;17.436;2023-04-15T02:08:15;7.70;90.55
77592;DHT22;66891;46.884;17.436;2023-04-15T02:10:42;7.60;91.53
77592;DHT22;66891;46.884;17.436;2023-04-15T02:13:10;7.76;90.79
77592;DHT22;66891;46.884;17.436;2023-04-15T02:15:37;7.57;92.29
77592;DHT22;66891;46.884;17.436;2023-04-15T02:18:06;7.55;91.49
77592;DHT22;66891;46.884;17.436;2023-04-15T02:20:33;7.45;92.40
77592;DHT22;66891;46.884;17.436;2023-04-15T02:23:02;7.43;92.81
77592;DHT22;66891;46.884;17.436;2023-04-15T02:25:33;7.57;92.39
77592;DHT22;66891;46.884;17.436;2023-04-15T02:28:00;7.59;92.20
77592;DHT22;66891;46.884;17.436;2023-04-15T02:30:28;7.55;91.89
77592;DHT22;66891;46.884;17.436;2023-04-15T02:32:55;7.67;91.80
77592;DHT22;66891;46.884;17.436;2023-04-15T02:35:24;7.66;91.82
77592;DHT22;66891;46.884;17.436;2023-04-15T02:37:51;7.69;91.76
77592;DHT22;66891;46.884;17.436;2023-04-15T02:40:19;7.62;92.85
77592;DHT22;66891;46.884;17.436;2023-04-15T02:42:47;7.65;93.23
77592;DHT22;66891;46.884;17.436;2023-04-15T02:45:14;7.74;91.58
77592;DHT22;66891;46.884;17.436;2023-04-15T02:47:41;7.73;91.60
77592;DHT22;66891;46.884;17.436;2023-04-15T02:50:11;7.60;92.84
77592;DHT22;66891;46.884;17.436;2023-04-15T02:52:40;7.62;92.75
77592;DHT22;66891;46.884;17.436;2023-04-15T02:55:08;7.77;91.22
77592;DHT22;66891;46.884;17.436;2023-04-15T02:57:36;7.73;91.58
77592;DHT22;66891;46.884;17.436;2023-04-15T03:00:05;7.74;91.80
77592;DHT22;66891;46.884;17.436;2023-04-15T03:02:36;7.65;92.51
77592;DHT22;66891;46.884;17.436;2023-04-15T03:05:04;7.57;92.85
77592;DHT22;66891;46.884;17.436;2023-04-15T03:07:33;7.66;92.26
77592;DHT22;66891;46.884;17.436;2023-04-15T03:10:02;7.59;92.82
77592;DHT22;66891;46.884;17.436;2023-04-15T03:12:29;7.70;91.64
77592;DHT22;66891;46.884;17.436;2023-04-15T03:14:57;7.80;91.71
77592;DHT22;66891;46.884;17.436;2023-04-15T03:17:24;7.73;91.52
77592;DHT22;66891;46.884;17.436;2023-04-15T03:19:52;7.67;91.59
77592;DHT22;66891;46.884;17.436;2023-04-15T03:22:19;7.81;91.36
77592;DHT22;66891;46.884;17.436;2023-04-15T03:24:46;7.90;90.98
77592;DHT22;66891;46.884;17.436;2023-04-15T03:27:15;7.90;90.82
77592;DHT22;66891;46.884;17.436;2023-04-15T03:29:42;7.83;91.82
77592;DHT22;66891;46.884;17.436;2023-04-15T03:32:10;7.85;91.28
77592;DHT22;66891;46.884;17.436;2023-04-15T03:34:57;7.71;91.91
77592;DHT22;66891;46.884;17.436;2023-04-15T03:37:25;7.70;92.93
77592;DHT22;66891;46.884;17.436;2023-04-15T03:39:52;7.76;92.16
77592;DHT22;66891;46.884;17.436;2023-04-15T03:42:21;7.78;92.07
77592;DHT22;66891;46.884;17.436;2023-04-15T03:44:48;7.95;90.83
77592;DHT22;66891;46.884;17.436;2023-04-15T03:47:15;7.83;91.21
77592;DHT22;66891;46.884;17.436;2023-04-15T03:49:43;7.99;90.58
77592;DHT22;66891;46.884;17.436;2023-04-15T03:52:11;7.81;91.59
77592;DHT22;66891;46.884;17.436;2023-04-15T03:54:38;7.74;92.00
77592;DHT22;66891;46.884;17.436;2023-04-15T03:57:05;7.76;91.89
77592;DHT22;66891;46.884;17.436;2023-04-15T03:59:34;7.87;91.41
77592;DHT22;66891;46.884;17.436;2023-04-15T04:02:01;7.94;91.40
77592;DHT22;66891;46.884;17.436;2023-04-15T04:04:29;7.97;91.18
77592;DHT22;66891;46.884;17.436;2023-04-15T04:06:57;7.78;92.02
77592;DHT22;66891;46.884;17.436;2023-04-15T04:09:24;7.98;91.15
77592;DHT22;66891;46.884;17.436;2023-04-15T04:11:51;7.77;91.46
77592;DHT22;66891;46.884;17.436;2023-04-15T04:14:19;7.81;91.92
77592;DHT22;66891;46.884;17.436;2023-04-15T04:16:47;7.70;92.80
77592;DHT22;66891;46.884;17.436;2023-04-15T04:19:15;7.77;92.68
77592;DHT22;66891;46.884;17.436;2023-04-15T04:21:45;7.77;92.86
77592;DHT22;66891;46.884;17.436;2023-04-15T04:24:13;7.85;91.88
77592;DHT22;66891;46.884;17.436;2023-04-15T04:26:40;7.77;92.99
77592;DHT22;66891;46.884;17.436;2023-04-15T04:29:07;7.80;93.27
77592;DHT22;66891;46.884;17.436;2023-04-15T04:31:35;7.76;93.62
77592;DHT22;66891;46.884;17.436;2023-04-15T04:34:04;7.93;91.91
77592;DHT22;66891;46.884;17.436;2023-04-15T04:36:32;8.12;90.80
77592;DHT22;66891;46.884;17.436;2023-04-15T04:38:59;8.05;91.14
77592;DHT22;66891;46.884;17.436;2023-04-15T04:41:27;8.02;91.54
77592;DHT22;66891;46.884;17.436;2023-04-15T04:43:55;8.02;91.13
77592;DHT22;66891;46.884;17.436;2023-04-15T04:46:22;8.05;90.97
77592;DHT22;66891;46.884;17.436;2023-04-15T04:48:50;8.11;91.01
77592;DHT22;66891;46.884;17.436;2023-04-15T04:51:19;8.09;90.82
77592;DHT22;66891;46.884;17.436;2023-04-15T04:53:46;8.16;91.02
77592;DHT22;66891;46.884;17.436;2023-04-15T04:56:14;8.11;91.34
77592;DHT22;66891;46.884;17.436;2023-04-15T04:58:41;8.02;91.87
77592;DHT22;66891;46.884;17.436;2023-04-15T05:01:08;8.21;90.57
77592;DHT22;66891;46.884;17.436;2023-04-15T05:03:36;8.26;90.35
77592;DHT22;66891;46.884;17.436;2023-04-15T05:06:04;8.11;90.75
77592;DHT22;66891;46.884;17.436;2023-04-15T05:08:36;8.29;90.00
77592;DHT22;66891;46.884;17.436;2023-04-15T05:11:06;8.25;90.56
77592;DHT22;66891;46.884;17.436;2023-04-15T05:13:33;8.21;90.25
77592;DHT22;66891;46.884;17.436;2023-04-15T05:16:00;8.29;90.13
77592;DHT22;66891;46.884;17.436;2023-04-15T05:18:28;8.24;91.03
77592;DHT22;66891;46.884;17.436;2023-04-15T05:20:55;8.22;90.71
77592;DHT22;66891;46.884;17.436;2023-04-15T05:23:23;8.16;90.70
77592;DHT22;66891;46.884;17.436;2023-04-15T05:25:52;8.18;90.74
77592;DHT22;66891;46.884;17.436;2023-04-15T05:28:20;8.28;90.54
77592;DHT22;66891;46.884;17.436;2023-04-15T05:30:47;8.33;89.72
77592;DHT22;66891;46.884;17.436;2023-04-15T05:33:15;8.32;90.22
77592;DHT22;66891;46.884;17.436;2023-04-15T05:35:42;8.25;90.82
77592;DHT22;66891;46.884;17.436;2023-04-15T05:38:10;8.31;90.13
77592;DHT22;66891;46.884;17.436;2023-04-15T05:40:37;8.32;90.19
77592;DHT22;66891;46.884;17.436;2023-04-15T05:43:06;8.16;91.05
77592;DHT22;66891;46.884;17.436;2023-04-15T05:45:33;8.28;90.48
77592;DHT22;66891;46.884;17.436;2023-04-15T05:48:00;8.35;90.37
77592;DHT22;66891;46.884;17.436;2023-04-15T05:50:28;8.31;90.68
77592;DHT22;66891;46.884;17.436;2023-04-15T05:52:55;8.43;89.77
77592;DHT22;66891;46.884;17.436;2023-04-15T05:55:23;8.53;90.16
77592;DHT22;66891;46.884;17.436;2023-04-15T05:57:50;8.45;89.66
77592;DHT22;66891;46.884;17.436;2023-04-15T06:00:19;8.49;89.57
77592;DHT22;66891;46.884;17.436;2023-04-15T06:02:47;8.28;90.54
77592;DHT22;66891;46.884;17.436;2023-04-15T06:05:15;8.14;91.89
77592;DHT22;66891;46.884;17.436;2023-04-15T06:07:42;8.48;90.42
77592;DHT22;66891;46.884;17.436;2023-04-15T06:10:13;8.49;90.22
77592;DHT22;66891;46.884;17.436;2023-04-15T06:12:40;8.52;90.46
77592;DHT22;66891;46.884;17.436;2023-04-15T06:15:08;8.66;90.26
77592;DHT22;66891;46.884;17.436;2023-04-15T06:17:37;8.70;89.55
77592;DHT22;66891;46.884;17.436;2023-04-15T06:20:05;8.74;89.40
77592;DHT22;66891;46.884;17.436;2023-04-15T06:22:36;8.70;89.62
77592;DHT22;66891;46.884;17.436;2023-04-15T06:25:04;8.67;89.92
77592;DHT22;66891;46.884;17.436;2023-04-15T06:27:32;8.62;90.35
77592;DHT22;66891;46.884;17.436;2023-04-15T06:29:59;8.63;90.20
77592;DHT22;66891;46.884;17.436;2023-04-15T06:32:26;8.67;90.34
77592;DHT22;66891;46.884;17.436;2023-04-15T06:34:55;8.76;89.79
77592;DHT22;66891;46.884;17.436;2023-04-15T06:37:23;8.76;89.91
77592;DHT22;66891;46.884;17.436;2023-04-15T06:39:50;8.80;89.52
77592;DHT22;66891;46.884;17.436;2023-04-15T06:42:17;8.87;89.44
77592;DHT22;66891;46.884;17.436;2023-04-15T06:44:45;9.01;88.08
77592;DHT22;66891;46.884;17.436;2023-04-15T06:47:12;8.90;88.88
77592;DHT22;66891;46.884;17.436;2023-04-15T06:49:40;9.00;89.20
77592;DHT22;66891;46.884;17.436;2023-04-15T06:52:10;9.07;88.64
77592;DHT22;66891;46.884;17.436;2023-04-15T06:54:38;9.19;88.08
77592;DHT22;66891;46.884;17.436;2023-04-15T06:57:06;9.14;88.75
77592;DHT22;66891;46.884;17.436;2023-04-15T06:59:33;9.34;87.42
77592;DHT22;66891;46.884;17.436;2023-04-15T07:02:01;9.29;87.85
77592;DHT22;66891;46.884;17.436;2023-04-15T07:04:28;9.36;87.48
77592;DHT22;66891;46.884;17.436;2023-04-15T07:06:55;9.36;87.78
77592;DHT22;66891;46.884;17.436;2023-04-15T07:09:24;9.24;87.50
77592;DHT22;66891;46.884;17.436;2023-04-15T07:11:52;9.38;87.61
77592;DHT22;66891;46.884;17.436;2023-04-15T07:14:19;9.45;88.25
77592;DHT22;66891;46.884;17.436;2023-04-15T07:16:47;9.48;87.93
77592;DHT22;66891;46.884;17.436;2023-04-15T07:19:14;9.43;87.73
77592;DHT22;66891;46.884;17.436;2023-04-15T07:21:42;9.40;87.70
77592;DHT22;66891;46.884;17.436;2023-04-15T07:24:09;9.46;87.63
77592;DHT22;66891;46.884;17.436;2023-04-15T07:26:38;9.48;87.66
77592;DHT22;66891;46.884;17.436;2023-04-15T07:29:06;9.53;87.25
77592;DHT22;66891;46.884;17.436;2023-04-15T07:31:33;9.49;87.73
77592;DHT22;66891;46.884;17.436;2023-04-15T07:34:03;9.43;87.52
77592;DHT22;66891;46.884;17.436;2023-04-15T07:36:31;9.45;88.12
77592;DHT22;66891;46.884;17.436;2023-04-15T07:38:58;9.55;88.10
77592;DHT22;66891;46.884;17.436;2023-04-15T07:41:28;9.72;87.69
77592;DHT22;66891;46.884;17.436;2023-04-15T07:43:57;9.65;86.73
77592;DHT22;66891;46.884;17.436;2023-04-15T07:46:25;9.57;87.08
77592;DHT22;66891;46.884;17.436;2023-04-15T07:48:53;9.38;87.57
77592;DHT22;66891;46.884;17.436;2023-04-15T07:51:20;9.50;87.12
77592;DHT22;66891;46.884;17.436;2023-04-15T07:53:48;9.42;87.56
77592;DHT22;66891;46.884;17.436;2023-04-15T07:56:16;9.31;88.06
77592;DHT22;66891;46.884;17.436;2023-04-15T07:58:43;9.35;87.63
77592;DHT22;66891;46.884;17.436;2023-04-15T08:01:12;9.48;87.07
77592;DHT22;66891;46.884;17.436;2023-04-15T08:03:40;9.49;86.66
77592;DHT22;66891;46.884;17.436;2023-04-15T08:06:08;9.43;87.14
77592;DHT22;66891;46.884;17.436;2023-04-15T08:08:35;9.56;86.83
77592;DHT22;66891;46.884;17.436;2023-04-15T08:11:04;9.48;87.02
77592;DHT22;66891;46.884;17.436;2023-04-15T08:13:31;9.50;87.07
77592;DHT22;66891;46.884;17.436;2023-04-15T08:16:19;9.55;86.32
77592;DHT22;66891;46.884;17.436;2023-04-15T08:18:48;9.79;87.00
77592;DHT22;66891;46.884;17.436;2023-04-15T08:21:16;10.13;86.03
77592;DHT22;66891;46.884;17.436;2023-04-15T08:23:46;10.22;84.95
77592;DHT22;66891;46.884;17.436;2023-04-15T08:26:13;10.31;85.18
77592;DHT22;66891;46.884;17.436;2023-04-15T08:28:44;10.51;85.10
77592;DHT22;66891;46.884;17.436;2023-04-15T08:31:11;10.76;85.52
77592;DHT22;66891;46.884;17.436;2023-04-15T08:33:40;10.73;83.61
77592;DHT22;66891;46.884;17.436;2023-04-15T08:36:08;10.89;82.89
77592;DHT22;66891;46.884;17.436;2023-04-15T08:38:35;10.86;83.25
77592;DHT22;66891;46.884;17.436;2023-04-15T08:41:07;10.68;84.12
77592;DHT22;66891;46.884;17.436;2023-04-15T08:43:45;10.46;83.56
77592;DHT22;66891;46.884;17.436;2023-04-15T08:46:14;10.40;84.26
77592;DHT22;66891;46.884;17.436;2023-04-15T08:48:45;10.56;83.15
77592;DHT22;66891;46.884;17.436;2023-04-15T08:51:14;10.42;84.29
77592;DHT22;66891;46.884;17.436;2023-04-15T08:53:42;10.30;83.89
77592;DHT22;66891;46.884;17.436;2023-04-15T08:56:11;10.18;85.05
77592;DHT22;66891;46.884;17.436;2023-04-15T08:58:40;10.18;84.64
77592;DHT22;66891;46.884;17.436;2023-04-15T09:01:08;10.13;84.78
77592;DHT22;66891;46.884;17.436;2023-04-15T09:03:36;10.22;84.75
77592;DHT22;66891;46.884;17.436;2023-04-15T09:06:05;10.20;84.56
77592;DHT22;66891;46.884;17.436;2023-04-15T09:08:33;10.28;85.58
77592;DHT22;66891;46.884;17.436;2023-04-15T09:11:03;10.35;85.30
77592;DHT22;66891;46.884;17.436;2023-04-15T09:13:31;10.22;84.24
77592;DHT22;66891;46.884;17.436;2023-04-15T09:16:00;10.18;84.74
77592;DHT22;66891;46.884;17.436;2023-04-15T09:18:31;10.08;85.08
77592;DHT22;66891;46.884;17.436;2023-04-15T09:21:05;10.07;85.12
77592;DHT22;66891;46.884;17.436;2023-04-15T09:23:35;10.10;86.05
77592;DHT22;66891;46.884;17.436;2023-04-15T09:26:03;10.20;85.13
77592;DHT22;66891;46.884;17.436;2023-04-15T09:28:31;10.31;84.34
77592;DHT22;66891;46.884;17.436;2023-04-15T09:31:00;10.52;84.64
77592;DHT22;66891;46.884;17.436;2023-04-15T09:33:29;10.55;83.97
77592;DHT22;66891;46.884;17.436;2023-04-15T09:35:58;10.52;83.83
77592;DHT22;66891;46.884;17.436;2023-04-15T09:38:27;10.76;84.18
77592;DHT22;66891;46.884;17.436;2023-04-15T09:40:54;10.95;83.90
77592;DHT22;66891;46.884;17.436;2023-04-15T09:43:22;11.03;83.45
77592;DHT22;66891;46.884;17.436;2023-04-15T09:46:02;11.20;83.44
77592;DHT22;66891;46.884;17.436;2023-04-15T09:48:30;11.13;81.46
77592;DHT22;66891;46.884;17.436;2023-04-15T09:50:58;11.20;81.16
77592;DHT22;66891;46.884;17.436;2023-04-15T09:53:28;11.34;82.06
77592;DHT22;66891;46.884;17.436;2023-04-15T09:55:59;11.79;82.23
77592;DHT22;66891;46.884;17.436;2023-04-15T09:58:30;11.93;80.40
77592;DHT22;66891;46.884;17.436;2023-04-15T10:00:58;12.13;79.92
77592;DHT22;66891;46.884;17.436;2023-04-15T10:03:28;12.12;78.48
77592;DHT22;66891;46.884;17.436;2023-04-15T10:05:56;12.07;79.07
77592;DHT22;66891;46.884;17.436;2023-04-15T10:08:26;12.00;78.99
77592;DHT22;66891;46.884;17.436;2023-04-15T10:10:55;12.00;80.79
77592;DHT22;66891;46.884;17.436;2023-04-15T10:13:25;12.22;78.68
77592;DHT22;66891;46.884;17.436;2023-04-15T10:15:56;12.38;78.05
77592;DHT22;66891;46.884;17.436;2023-04-15T10:18:25;12.30;77.26
77592;DHT22;66891;46.884;17.436;2023-04-15T10:20:54;12.31;77.92
77592;DHT22;66891;46.884;17.436;2023-04-15T10:23:22;12.47;76.74
77592;DHT22;66891;46.884;17.436;2023-04-15T10:25:51;12.44;76.88
77592;DHT22;66891;46.884;17.436;2023-04-15T10:28:21;12.27;76.71
77592;DHT22;66891;46.884;17.436;2023-04-15T10:30:49;12.62;77.37
77592;DHT22;66891;46.884;17.436;2023-04-15T10:33:20;13.00;77.39
77592;DHT22;66891;46.884;17.436;2023-04-15T10:35:49;13.32;76.62
77592;DHT22;66891;46.884;17.436;2023-04-15T10:38:34;13.06;76.28
77592;DHT22;66891;46.884;17.436;2023-04-15T10:41:13;12.87;77.75
77592;DHT22;66891;46.884;17.436;2023-04-15T10:43:51;12.71;77.06
77592;DHT22;66891;46.884;17.436;2023-04-15T10:46:26;13.16;75.21
77592;DHT22;66891;46.884;17.436;2023-04-15T10:49:06;13.43;72.46
77592;DHT22;66891;46.884;17.436;2023-04-15T10:51:37;13.09;74.32
77592;DHT22;66891;46.884;17.436;2023-04-15T10:54:09;12.75;74.92
77592;DHT22;66891;46.884;17.436;2023-04-15T10:56:40;12.54;77.27
77592;DHT22;66891;46.884;17.436;2023-04-15T10:59:09;12.51;76.82
77592;DHT22;66891;46.884;17.436;2023-04-15T11:01:49;12.30;77.68
77592;DHT22;66891;46.884;17.436;2023-04-15T11:04:51;11.90;78.92
77592;DHT22;66891;46.884;17.436;2023-04-15T11:07:48;11.69;81.19
77592;DHT22;66891;46.884;17.436;2023-04-15T11:10:50;11.82;81.91
77592;DHT22;66891;46.884;17.436;2023-04-15T11:13:20;11.81;80.53
77592;DHT22;66891;46.884;17.436;2023-04-15T11:16:03;11.79;82.52
77592;DHT22;66891;46.884;17.436;2023-04-15T11:18:33;12.26;80.84
77592;DHT22;66891;46.884;17.436;2023-04-15T11:21:04;12.69;79.94
77592;DHT22;66891;46.884;17.436;2023-04-15T11:23:37;12.67;79.80
77592;DHT22;66891;46.884;17.436;2023-04-15T11:26:08;12.72;78.36
77592;DHT22;66891;46.884;17.436;2023-04-15T11:28:40;12.96;73.97
77592;DHT22;66891;46.884;17.436;2023-04-15T11:31:10;12.88;75.55
77592;DHT22;66891;46.884;17.436;2023-04-15T11:33:45;12.62;75.56
77592;DHT22;66891;46.884;17.436;2023-04-15T11:36:12;12.12;79.58
77592;DHT22;66891;46.884;17.436;2023-04-15T11:38:45;12.13;79.01
77592;DHT22;66891;46.884;17.436;2023-04-15T11:41:13;12.06;78.55
77592;DHT22;66891;46.884;17.436;2023-04-15T11:43:41;11.83;77.38
77592;DHT22;66891;46.884;17.436;2023-04-15T11:46:09;11.62;80.05
77592;DHT22;66891;46.884;17.436;2023-04-15T11:48:41;11.44;79.90
77592;DHT22;66891;46.884;17.436;2023-04-15T11:51:10;11.28;82.31
77592;DHT22;66891;46.884;17.436;2023-04-15T11:53:40;10.90;83.83
77592;DHT22;66891;46.884;17.436;2023-04-15T11:56:08;10.66;84.49
77592;DHT22;66891;46.884;17.436;2023-04-15T11:58:37;10.72;84.50
77592;DHT22;66891;46.884;17.436;2023-04-15T12:01:05;10.58;83.67
77592;DHT22;66891;46.884;17.436;2023-04-15T12:03:38;10.35;83.46
77592;DHT22;66891;46.884;17.436;2023-04-15T12:06:10;10.25;83.47
77592;DHT22;66891;46.884;17.436;2023-04-15T12:09:08;10.41;85.47
77592;DHT22;66891;46.884;17.436;2023-04-15T12:11:38;10.97;84.77
77592;DHT22;66891;46.884;17.436;2023-04-15T12:14:09;11.47;81.43
77592;DHT22;66891;46.884;17.436;2023-04-15T12:16:40;11.38;79.81
77592;DHT22;66891;46.884;17.436;2023-04-15T12:19:20;12.02;79.46
77592;DHT22;66891;46.884;17.436;2023-04-15T12:21:48;11.55;77.62
77592;DHT22;66891;46.884;17.436;2023-04-15T12:24:20;11.87;78.41
77592;DHT22;66891;46.884;17.436;2023-04-15T12:26:49;11.82;78.85
77592;DHT22;66891;46.884;17.436;2023-04-15T12:29:18;12.47;77.58
77592;DHT22;66891;46.884;17.436;2023-04-15T12:31:49;13.70;73.82
77592;DHT22;66891;46.884;17.436;2023-04-15T12:34:26;13.28;73.77
77592;DHT22;66891;46.884;17.436;2023-04-15T12:36:54;13.24;71.38
77592;DHT22;66891;46.884;17.436;2023-04-15T12:39:22;14.18;70.35
77592;DHT22;66891;46.884;17.436;2023-04-15T12:41:50;13.92;73.93
77592;DHT22;66891;46.884;17.436;2023-04-15T12:44:17;15.43;69.53
77592;DHT22;66891;46.884;17.436;2023-04-15T12:46:45;16.90;64.15
77592;DHT22;66891;46.884;17.436;2023-04-15T12:49:12;15.98;64.61
77592;DHT22;66891;46.884;17.436;2023-04-15T12:51:47;15.22;66.53
77592;DHT22;66891;46.884;17.436;2023-04-15T12:54:15;14.84;66.27
77592;DHT22;66891;46.884;17.436;2023-04-15T12:56:45;14.23;69.59
77592;DHT22;66891;46.884;17.436;2023-04-15T12:59:12;15.04;66.84
77592;DHT22;66891;46.884;17.436;2023-04-15T13:01:40;15.45;66.24
77592;DHT22;66891;46.884;17.436;2023-04-15T13:04:07;15.21;63.11
77592;DHT22;66891;46.884;17.436;2023-04-15T13:06:35;14.91;64.63
77592;DHT22;66891;46.884;17.436;2023-04-15T13:09:04;14.84;66.66
77592;DHT22;66891;46.884;17.436;2023-04-15T13:11:33;14.18;65.98
77592;DHT22;66891;46.884;17.436;2023-04-15T13:14:01;14.21;68.65
77592;DHT22;66891;46.884;17.436;2023-04-15T13:16:29;14.36;70.02
77592;DHT22;66891;46.884;17.436;2023-04-15T13:18:56;14.32;67.75
77592;DHT22;66891;46.884;17.436;2023-04-15T13:21:24;14.41;67.54
77592;DHT22;66891;46.884;17.436;2023-04-15T13:23:51;14.50;69.67
77592;DHT22;66891;46.884;17.436;2023-04-15T13:26:20;14.22;69.37
77592;DHT22;66891;46.884;17.436;2023-04-15T13:28:47;14.18;71.75
77592;DHT22;66891;46.884;17.436;2023-04-15T13:31:15;14.21;69.91
77592;DHT22;66891;46.884;17.436;2023-04-15T13:33:42;13.77;72.64
77592;DHT22;66891;46.884;17.436;2023-04-15T13:36:09;13.50;72.80
77592;DHT22;66891;46.884;17.436;2023-04-15T13:38:37;13.50;73.30
77592;DHT22;66891;46.884;17.436;2023-04-15T13:41:04;13.10;76.21
77592;DHT22;66891;46.884;17.436;2023-04-15T13:43:33;13.54;76.31
77592;DHT22;66891;46.884;17.436;2023-04-15T13:46:01;14.01;73.36
77592;DHT22;66891;46.884;17.436;2023-04-15T13:48:28;14.18;71.05
77592;DHT22;66891;46.884;17.436;2023-04-15T13:50:56;13.78;67.86
77592;DHT22;66891;46.884;17.436;2023-04-15T13:53:23;13.54;70.49
77592;DHT22;66891;46.884;17.436;2023-04-15T13:56:05;13.15;69.28
77592;DHT22;66891;46.884;17.436;2023-04-15T13:58:34;13.03;68.71
77592;DHT22;66891;46.884;17.436;2023-04-15T14:01:02;12.62;72.76
77592;DHT22;66891;46.884;17.436;2023-04-15T14:03:33;12.60;74.08
77592;DHT22;66891;46.884;17.436;2023-04-15T14:06:01;12.51;74.42
77592;DHT22;66891;46.884;17.436;2023-04-15T14:08:29;12.55;73.39
77592;DHT22;66891;46.884;17.436;2023-04-15T14:10:56;12.88;73.23
77592;DHT22;66891;46.884;17.436;2023-04-15T14:13:23;13.05;71.61
77592;DHT22;66891;46.884;17.436;2023-04-15T14:15:52;12.69;74.12
77592;DHT22;66891;46.884;17.436;2023-04-15T14:18:19;12.45;75.89
77592;DHT22;66891;46.884;17.436;2023-04-15T14:20:47;12.55;73.64
77592;DHT22;66891;46.884;17.436;2023-04-15T14:23:14;12.87;73.91
77592;DHT22;66891;46.884;17.436;2023-04-15T14:25:42;12.75;72.85
77592;DHT22;66891;46.884;17.436;2023-04-15T14:28:12;12.77;74.45
77592;DHT22;66891;46.884;17.436;2023-04-15T14:30:39;12.67;74.20
77592;DHT22;66891;46.884;17.436;2023-04-15T14:33:08;12.52;74.76
77592;DHT22;66891;46.884;17.436;2023-04-15T14:35:35;12.41;74.20
77592;DHT22;66891;46.884;17.436;2023-04-15T14:38:03;12.65;72.73
77592;DHT22;66891;46.884;17.436;2023-04-15T14:40:34;12.31;76.77
77592;DHT22;66891;46.884;17.436;2023-04-15T14:43:01;12.06;75.94
77592;DHT22;66891;46.884;17.436;2023-04-15T14:45:29;12.13;75.46
77592;DHT22;66891;46.884;17.436;2023-04-15T14:47:56;12.12;76.00
77592;DHT22;66891;46.884;17.436;2023-04-15T14:50:25;12.19;77.36
77592;DHT22;66891;46.884;17.436;2023-04-15T14:52:52;12.16;78.04
77592;DHT22;66891;46.884;17.436;2023-04-15T14:55:20;12.34;76.62
77592;DHT22;66891;46.884;17.436;2023-04-15T14:57:47;12.71;75.70
77592;DHT22;66891;46.884;17.436;2023-04-15T15:00:14;12.68;74.13
77592;DHT22;66891;46.884;17.436;2023-04-15T15:02:42;12.57;73.71
77592;DHT22;66891;46.884;17.436;2023-04-15T15:05:10;12.27;76.42
77592;DHT22;66891;46.884;17.436;2023-04-15T15:07:39;12.19;76.13
77592;DHT22;66891;46.884;17.436;2023-04-15T15:10:07;12.33;75.05
77592;DHT22;66891;46.884;17.436;2023-04-15T15:12:34;12.12;74.33
77592;DHT22;66891;46.884;17.436;2023-04-15T15:15:03;12.24;75.90
77592;DHT22;66891;46.884;17.436;2023-04-15T15:17:41;12.30;72.37
77592;DHT22;66891;46.884;17.436;2023-04-15T15:20:09;12.17;73.37
77592;DHT22;66891;46.884;17.436;2023-04-15T15:22:38;11.86;73.99
77592;DHT22;66891;46.884;17.436;2023-04-15T15:25:06;11.97;73.72
77592;DHT22;66891;46.884;17.436;2023-04-15T15:27:33;12.02;73.34
77592;DHT22;66891;46.884;17.436;2023-04-15T15:30:04;11.68;75.50
77592;DHT22;66891;46.884;17.436;2023-04-15T15:32:33;11.75;74.36
77592;DHT22;66891;46.884;17.436;2023-04-15T15:35:00;11.78;75.59
77592;DHT22;66891;46.884;17.436;2023-04-15T15:37:29;11.72;75.84